createdAt,value
2022-12-07T00:01:58.474Z,17.75
2022-12-07T00:04:27.680Z,13.40
2022-12-07T00:06:57.668Z,17.27
2022-12-07T00:09:28.847Z,12.07
2022-12-07T00:12:00.581Z,12.73
2022-12-07T00:14:32.910Z,15.57
2022-12-07T00:17:02.198Z,11.50
2022-12-07T00:19:31.314Z,15.27
2022-12-07T00:22:00.758Z,11.20
2022-12-07T00:24:31.786Z,14.88
2022-12-07T00:27:01.275Z,16.88
2022-12-07T00:29:30.870Z,16.73
2022-12-07T00:32:00.231Z,15.57
2022-12-07T00:34:29.872Z,13.73
2022-12-07T00:36:59.202Z,12.60
2022-12-07T00:39:28.583Z,14.32
2022-12-07T00:41:59.030Z,12.35
2022-12-07T00:44:28.534Z,12.48
2022-12-07T00:46:57.985Z,21.23
2022-12-07T00:49:27.157Z,10.55
2022-12-07T00:51:56.436Z,18.73
2022-12-07T00:54:25.666Z,15.10
2022-12-07T00:56:55.156Z,10.27
2022-12-07T00:59:26.226Z,17.42
2022-12-07T01:01:55.559Z,11.77
2022-12-07T01:04:24.997Z,13.65
2022-12-07T01:06:54.580Z,10.27
2022-12-07T01:09:24.152Z,11.40
2022-12-07T01:11:55.293Z,10.90
2022-12-07T01:14:25.981Z,10.60
2022-12-07T01:16:55.051Z,14.65
2022-12-07T01:19:24.772Z,13.95
2022-12-07T01:21:55.794Z,21.45
2022-12-07T01:24:28.200Z,12.30
2022-12-07T01:27:04.970Z,13.93
2022-12-07T01:29:35.621Z,12.88
2022-12-07T01:32:05.014Z,16.27
2022-12-07T01:34:34.398Z,12.02
2022-12-07T01:37:03.342Z,17.05
2022-12-07T01:39:32.389Z,8.07
2022-12-07T01:42:01.355Z,13.43
2022-12-07T01:44:32.973Z,11.40
2022-12-07T01:47:04.108Z,11.75
2022-12-07T01:49:34.782Z,15.77
2022-12-07T01:52:07.337Z,10.30
2022-12-07T01:54:37.040Z,11.98
2022-12-07T01:57:07.275Z,11.82
2022-12-07T01:59:36.522Z,11.52
2022-12-07T02:02:10.642Z,15.07
2022-12-07T02:04:39.801Z,13.60
2022-12-07T02:07:10.377Z,9.60
2022-12-07T02:09:39.356Z,16.23
2022-12-07T02:12:08.427Z,11.35
2022-12-07T02:14:37.485Z,15.30
2022-12-07T02:17:10.672Z,17.98
2022-12-07T02:19:57.631Z,11.73
2022-12-07T02:22:34.533Z,10.77
2022-12-07T02:25:11.683Z,14.02
2022-12-07T02:27:42.734Z,14.15
2022-12-07T02:30:14.471Z,14.10
2022-12-07T02:32:46.608Z,14.55
2022-12-07T02:35:19.914Z,15.18
2022-12-07T02:37:56.456Z,12.02
2022-12-07T02:40:27.918Z,12.80
2022-12-07T02:43:00.726Z,11.43
2022-12-07T02:45:32.726Z,17.23
2022-12-07T02:48:03.228Z,10.90
2022-12-07T02:50:32.241Z,18.70
2022-12-07T02:53:01.443Z,25.58
2022-12-07T02:55:33.102Z,17.95
2022-12-07T02:58:09.130Z,14.20
2022-12-07T03:00:45.019Z,21.05
2022-12-07T03:03:16.211Z,13.15
2022-12-07T03:05:52.412Z,15.15
2022-12-07T03:08:24.723Z,14.80
2022-12-07T03:10:56.521Z,21.88
2022-12-07T03:13:28.329Z,14.13
2022-12-07T03:18:28.905Z,17.95
2022-12-07T03:20:59.779Z,13.50
2022-12-07T03:23:29.722Z,12.43
2022-12-07T03:26:01.132Z,16.20
2022-12-07T03:28:34.370Z,14.00
2022-12-07T03:31:06.439Z,10.65
2022-12-07T03:33:43.181Z,12.57
2022-12-07T03:36:15.190Z,11.63
2022-12-07T03:38:47.851Z,15.25
2022-12-07T03:41:19.329Z,11.98
2022-12-07T03:43:48.538Z,17.95
2022-12-07T03:46:20.915Z,13.60
2022-12-07T03:48:56.444Z,11.73
2022-12-07T03:51:28.176Z,11.48
2022-12-07T03:54:01.257Z,17.77
2022-12-07T03:56:31.800Z,10.57
2022-12-07T03:59:00.890Z,12.13
2022-12-07T04:01:30.486Z,9.90
2022-12-07T04:04:00.966Z,11.85
2022-12-07T04:06:30.149Z,10.55
2022-12-07T04:08:59.390Z,14.63
2022-12-07T04:11:28.499Z,13.95
2022-12-07T04:14:14.251Z,13.55
2022-12-07T04:16:44.808Z,14.57
2022-12-07T04:19:15.574Z,13.52
2022-12-07T04:21:44.741Z,13.15
2022-12-07T04:24:14.751Z,11.18
2022-12-07T04:26:44.022Z,18.75
2022-12-07T04:29:13.373Z,14.43
2022-12-07T04:31:45.028Z,14.48
2022-12-07T04:34:15.779Z,11.10
2022-12-07T04:36:45.370Z,10.05
2022-12-07T04:39:19.877Z,10.73
2022-12-07T04:41:49.060Z,13.13
2022-12-07T04:44:18.818Z,11.02
2022-12-07T04:46:47.942Z,7.57
2022-12-07T04:49:18.530Z,13.40
2022-12-07T04:51:47.998Z,10.52
2022-12-07T04:54:17.957Z,10.27
2022-12-07T04:56:49.049Z,9.52
2022-12-07T04:59:19.169Z,14.27
2022-12-07T05:01:48.551Z,19.35
2022-12-07T05:04:21.009Z,11.93
2022-12-07T05:06:50.206Z,10.30
2022-12-07T05:09:19.355Z,11.70
2022-12-07T05:11:48.383Z,12.85
2022-12-07T05:14:18.236Z,15.18
2022-12-07T05:16:48.503Z,11.13
2022-12-07T05:19:19.653Z,11.98
2022-12-07T05:21:48.776Z,13.80
2022-12-07T05:24:18.636Z,15.35
2022-12-07T05:26:47.764Z,13.38
2022-12-07T05:29:17.575Z,9.70
2022-12-07T05:31:47.514Z,10.50
2022-12-07T05:34:16.788Z,9.45
2022-12-07T05:36:47.191Z,13.07
2022-12-07T05:39:16.697Z,9.88
2022-12-07T05:42:03.626Z,7.22
2022-12-07T05:44:32.773Z,7.85
2022-12-07T05:47:01.895Z,6.88
2022-12-07T05:49:33.854Z,11.13
2022-12-07T05:54:33.172Z,9.60
2022-12-07T05:57:04.416Z,8.52
2022-12-07T05:59:32.906Z,12.68
2022-12-07T06:02:04.247Z,8.95
2022-12-07T06:04:34.525Z,9.05
2022-12-07T06:07:03.918Z,8.95
2022-12-07T06:09:34.719Z,10.10
2022-12-07T06:12:21.430Z,11.38
2022-12-07T06:14:50.564Z,7.53
2022-12-07T06:17:19.880Z,9.57
2022-12-07T06:19:49.085Z,11.35
2022-12-07T06:22:18.518Z,7.15
2022-12-07T06:24:48.952Z,8.82
2022-12-07T06:27:18.357Z,8.32
2022-12-07T06:29:47.807Z,10.65
2022-12-07T06:32:17.023Z,10.05
2022-12-07T06:34:48.389Z,9.82
2022-12-07T06:37:17.811Z,9.38
2022-12-07T06:39:47.306Z,10.70
2022-12-07T06:42:18.296Z,9.30
2022-12-07T06:44:47.954Z,11.18
2022-12-07T06:50:08.668Z,17.15
2022-12-07T06:52:40.369Z,10.65
2022-12-07T06:55:09.916Z,11.30
2022-12-07T06:57:40.560Z,10.18
2022-12-07T07:00:10.501Z,12.57
2022-12-07T07:02:39.849Z,10.00
2022-12-07T07:05:09.393Z,9.57
2022-12-07T07:07:58.175Z,11.52
2022-12-07T07:10:30.309Z,9.10
2022-12-07T07:13:01.083Z,15.75
2022-12-07T07:15:31.662Z,14.27
2022-12-07T07:18:07.438Z,10.95
2022-12-07T07:20:37.462Z,10.70
2022-12-07T07:23:07.304Z,13.80
2022-12-07T07:25:36.989Z,9.57
2022-12-07T07:28:09.854Z,8.48
2022-12-07T07:30:39.270Z,9.82
2022-12-07T07:33:08.756Z,12.60
2022-12-07T07:35:37.907Z,11.38
2022-12-07T07:38:07.184Z,12.25
2022-12-07T07:40:37.505Z,10.32
2022-12-07T07:43:13.468Z,9.38
2022-12-07T07:45:45.319Z,12.02
2022-12-07T07:48:16.742Z,11.63
2022-12-07T07:50:45.862Z,12.68
2022-12-07T07:53:16.423Z,13.75
2022-12-07T07:55:52.879Z,12.73
2022-12-07T07:58:26.973Z,11.18
2022-12-07T08:00:59.942Z,13.25
2022-12-07T08:03:32.631Z,12.40
2022-12-07T08:06:02.507Z,13.05
2022-12-07T08:08:41.333Z,16.30
2022-12-07T08:11:11.459Z,10.18
2022-12-07T08:13:42.169Z,11.38
2022-12-07T08:16:12.964Z,13.25
2022-12-07T08:18:43.359Z,11.45
2022-12-07T08:21:15.009Z,11.20
2022-12-07T08:23:44.816Z,9.75
2022-12-07T08:26:15.906Z,8.77
2022-12-07T08:28:47.257Z,8.75
2022-12-07T08:31:17.663Z,9.15
2022-12-07T08:33:50.449Z,9.70
2022-12-07T08:36:19.868Z,14.48
2022-12-07T08:39:29.144Z,9.63
2022-12-07T08:41:40.428Z,9.40
2022-12-07T08:44:16.474Z,10.65
2022-12-07T08:46:49.097Z,11.70
2022-12-07T08:49:19.543Z,12.63
2022-12-07T08:51:54.104Z,12.00
2022-12-07T08:54:23.584Z,12.55
2022-12-07T08:56:59.062Z,12.13
2022-12-07T08:59:31.563Z,11.75
2022-12-07T09:02:01.656Z,13.88
2022-12-07T09:04:34.717Z,15.05
2022-12-07T09:07:05.604Z,11.02
2022-12-07T09:09:36.423Z,9.07
2022-12-07T09:12:06.131Z,12.45
2022-12-07T09:14:38.302Z,10.65
2022-12-07T09:17:12.944Z,9.18
2022-12-07T09:19:43.687Z,15.68
2022-12-07T09:22:13.406Z,5.57
2022-12-07T09:24:43.022Z,8.45
2022-12-07T09:27:15.276Z,8.48
2022-12-07T09:29:48.902Z,7.55
2022-12-07T09:32:18.942Z,7.38
2022-12-07T09:34:49.131Z,9.93
2022-12-07T09:37:18.446Z,11.65
2022-12-07T09:39:50.269Z,7.57
2022-12-07T09:42:29.148Z,17.35
2022-12-07T09:45:06.819Z,8.52
2022-12-07T09:47:38.680Z,8.25
2022-12-07T09:50:18.401Z,7.10
2022-12-07T09:52:49.029Z,9.60
2022-12-07T09:55:21.375Z,9.60
2022-12-07T09:57:52.659Z,6.15
2022-12-07T10:00:24.132Z,15.43
2022-12-07T10:03:01.104Z,10.23
2022-12-07T10:05:33.106Z,12.32
2022-12-07T10:08:02.507Z,11.75
2022-12-07T10:10:38.049Z,10.23
2022-12-07T10:13:09.066Z,10.55
2022-12-07T10:15:50.875Z,13.48
2022-12-07T10:19:01.199Z,11.98
2022-12-07T10:21:36.125Z,12.85
2022-12-07T10:24:28.573Z,8.60
2022-12-07T10:27:45.009Z,10.52
2022-12-07T10:30:17.213Z,10.63
2022-12-07T10:32:48.162Z,13.10
2022-12-07T10:35:25.645Z,13.98
2022-12-07T10:37:55.948Z,12.45
2022-12-07T10:40:29.803Z,6.38
2022-12-07T10:43:09.216Z,7.32
2022-12-07T10:46:02.621Z,9.13
2022-12-07T10:48:41.564Z,8.02
2022-12-07T10:51:15.011Z,9.32
2022-12-07T10:53:51.253Z,14.90
2022-12-07T10:56:32.163Z,7.82
2022-12-07T10:59:07.191Z,12.95
2022-12-07T11:01:44.735Z,14.48
2022-12-07T11:04:23.344Z,9.00
2022-12-07T11:06:57.524Z,9.25
2022-12-07T11:10:07.804Z,7.07
2022-12-07T11:12:44.333Z,12.77
2022-12-07T11:15:18.526Z,11.75
2022-12-07T11:17:51.282Z,9.65
2022-12-07T11:20:32.470Z,12.90
2022-12-07T11:23:06.240Z,8.82
2022-12-07T11:25:38.628Z,8.20
2022-12-07T11:28:19.767Z,11.48
2022-12-07T11:30:53.670Z,7.95
2022-12-07T11:33:25.024Z,6.82
2022-12-07T11:36:01.701Z,6.97
2022-12-07T11:38:34.613Z,10.45
2022-12-07T11:41:14.089Z,7.20
2022-12-07T11:43:55.706Z,5.53
2022-12-07T11:46:27.933Z,11.85
2022-12-07T11:49:01.524Z,9.60
2022-12-07T11:51:36.330Z,10.05
2022-12-07T11:54:10.224Z,16.90
2022-12-07T11:56:39.876Z,11.15
2022-12-07T11:59:15.778Z,10.60
2022-12-07T12:01:51.187Z,8.13
2022-12-07T12:04:27.064Z,6.05
2022-12-07T12:06:58.196Z,7.78
2022-12-07T12:15:10.042Z,9.57
2022-12-07T12:17:50.398Z,8.40
2022-12-07T12:20:23.588Z,8.48
2022-12-07T12:22:56.752Z,8.50
2022-12-07T12:25:30.264Z,8.75
2022-12-07T12:28:01.569Z,8.38
2022-12-07T12:30:36.570Z,6.28
2022-12-07T12:33:16.008Z,8.00
2022-12-07T12:35:48.477Z,9.45
2022-12-07T12:38:32.164Z,11.68
2022-12-07T12:41:01.436Z,8.82
2022-12-07T12:43:57.109Z,11.48
2022-12-07T12:46:51.307Z,8.35
2022-12-07T12:49:45.841Z,6.65
2022-12-07T12:52:35.223Z,7.10
2022-12-07T12:55:20.140Z,8.15
2022-12-07T12:57:55.898Z,7.80
2022-12-07T13:00:29.894Z,8.75
2022-12-07T13:03:01.905Z,9.25
2022-12-07T13:08:05.377Z,7.20
2022-12-07T13:10:41.141Z,8.93
2022-12-07T13:13:29.075Z,6.22
2022-12-07T13:16:18.456Z,11.20
2022-12-07T13:18:47.863Z,12.10
2022-12-07T13:21:32.366Z,12.70
2022-12-07T13:24:02.187Z,13.43
2022-12-07T13:26:39.815Z,14.32
2022-12-07T13:29:13.394Z,16.05
2022-12-07T13:31:43.558Z,11.52
2022-12-07T13:34:31.806Z,9.00
2022-12-07T13:37:02.579Z,10.23
2022-12-07T13:39:32.080Z,9.93
2022-12-07T13:42:18.449Z,8.75
2022-12-07T13:44:47.894Z,9.30
2022-12-07T13:47:20.318Z,10.15
2022-12-07T13:49:53.733Z,10.02
2022-12-07T13:52:25.156Z,8.70
2022-12-07T13:55:01.781Z,11.18
2022-12-07T13:57:34.920Z,10.68
2022-12-07T14:00:19.955Z,13.75
2022-12-07T14:02:58.402Z,14.20
2022-12-07T14:05:28.753Z,11.77
2022-12-07T14:08:00.472Z,8.15
2022-12-07T14:10:31.737Z,13.45
2022-12-07T14:13:03.348Z,6.30
2022-12-07T14:15:34.065Z,9.70
2022-12-07T14:18:06.694Z,9.88
2022-12-07T14:20:38.523Z,6.32
2022-12-07T14:23:11.310Z,8.25
2022-12-07T14:25:51.570Z,12.13
2022-12-07T14:28:30.447Z,6.82
2022-12-07T14:30:59.493Z,8.60
2022-12-07T14:33:29.231Z,10.20
2022-12-07T14:35:59.452Z,7.28
2022-12-07T14:38:32.806Z,7.35
2022-12-07T14:41:15.928Z,6.97
2022-12-07T14:44:07.262Z,7.88
2022-12-07T14:46:36.432Z,8.85
2022-12-07T14:54:45.189Z,8.15
2022-12-07T14:57:14.331Z,9.30
2022-12-07T14:59:45.530Z,14.90
2022-12-07T15:02:15.520Z,14.30
2022-12-07T15:04:44.753Z,15.85
2022-12-07T15:07:18.129Z,16.30
2022-12-07T15:09:47.589Z,12.50
2022-12-07T15:12:17.859Z,14.52
2022-12-07T15:14:48.745Z,7.72
2022-12-07T15:17:29.584Z,9.38
2022-12-07T15:20:01.012Z,9.25
2022-12-07T15:22:36.603Z,19.83
2022-12-07T15:25:07.815Z,13.02
2022-12-07T15:27:37.210Z,12.07
2022-12-07T15:30:08.665Z,14.05
2022-12-07T15:32:37.709Z,14.55
2022-12-07T15:35:07.216Z,13.15
2022-12-07T15:37:36.552Z,8.70
2022-12-07T15:40:07.983Z,7.47
2022-12-07T15:42:39.747Z,8.57
2022-12-07T15:45:10.348Z,12.23
2022-12-07T15:48:10.370Z,10.55
2022-12-07T15:50:29.995Z,10.40
2022-12-07T15:52:59.189Z,7.60
2022-12-07T15:55:28.562Z,10.50
2022-12-07T15:57:59.263Z,8.48
2022-12-07T16:00:36.269Z,12.15
2022-12-07T16:03:06.083Z,8.55
2022-12-07T16:05:35.860Z,10.43
2022-12-07T16:08:05.689Z,11.23
2022-12-07T16:10:35.157Z,8.43
2022-12-07T16:13:04.371Z,7.82
2022-12-07T16:15:34.877Z,9.35
2022-12-07T16:18:04.402Z,7.60
2022-12-07T16:20:33.646Z,7.78
2022-12-07T16:23:03.084Z,12.20
2022-12-07T16:25:32.622Z,9.75
2022-12-07T16:28:02.015Z,9.55
2022-12-07T16:30:32.822Z,8.32
2022-12-07T16:33:03.433Z,9.15
2022-12-07T16:35:37.807Z,8.77
2022-12-07T16:38:07.002Z,10.73
2022-12-07T16:40:38.029Z,10.55
2022-12-07T16:43:07.759Z,9.30
2022-12-07T16:45:40.213Z,11.68
2022-12-07T16:48:10.873Z,9.18
2022-12-07T16:50:46.661Z,9.50
2022-12-07T16:53:19.302Z,11.23
2022-12-07T16:55:49.313Z,8.98
2022-12-07T16:58:20.494Z,12.35
2022-12-07T17:00:49.841Z,10.10
2022-12-07T17:03:21.209Z,13.20
2022-12-07T17:05:51.234Z,26.35
2022-12-07T17:08:20.900Z,23.52
2022-12-07T17:10:51.494Z,14.95
2022-12-07T17:13:39.793Z,17.80
2022-12-07T17:16:09.691Z,20.10
2022-12-07T17:18:44.442Z,26.33
2022-12-07T17:21:14.001Z,18.17
2022-12-07T17:23:43.437Z,13.35
2022-12-07T17:26:15.888Z,13.57
2022-12-07T17:28:47.801Z,12.98
2022-12-07T17:31:19.733Z,11.00
2022-12-07T17:33:50.343Z,9.80
2022-12-07T17:36:21.316Z,10.97
2022-12-07T17:38:51.878Z,12.33
2022-12-07T17:41:37.619Z,15.48
2022-12-07T17:44:08.453Z,12.70
2022-12-07T17:46:38.739Z,12.33
2022-12-07T17:49:10.138Z,16.88
2022-12-07T17:51:57.070Z,19.85
2022-12-07T17:54:29.397Z,18.38
2022-12-07T17:56:59.637Z,18.42
2022-12-07T17:59:34.219Z,13.32
2022-12-07T18:02:03.842Z,17.83
2022-12-07T18:04:36.684Z,15.45
2022-12-07T18:07:07.029Z,16.98
2022-12-07T18:09:36.724Z,21.25
2022-12-07T18:12:06.509Z,18.15
2022-12-07T18:14:38.360Z,17.63
2022-12-07T18:17:08.073Z,21.58
2022-12-07T18:19:39.257Z,22.42
2022-12-07T18:22:08.476Z,18.08
2022-12-07T18:24:38.437Z,15.68
2022-12-07T18:27:08.749Z,18.27
2022-12-07T18:29:38.180Z,16.55
2022-12-07T18:32:07.961Z,18.02
2022-12-07T18:34:37.190Z,18.60
2022-12-07T18:37:09.839Z,15.55
2022-12-07T18:39:38.880Z,19.67
2022-12-07T18:42:17.263Z,16.58
2022-12-07T18:44:47.374Z,17.25
2022-12-07T18:47:17.032Z,15.75
2022-12-07T18:49:46.223Z,16.13
2022-12-07T18:52:17.028Z,14.90
2022-12-07T18:54:46.271Z,16.58
2022-12-07T18:57:16.255Z,21.35
2022-12-07T18:59:50.918Z,16.15
2022-12-07T19:02:21.739Z,15.23
2022-12-07T19:04:55.469Z,17.15
2022-12-07T19:07:26.747Z,18.88
2022-12-07T19:09:56.157Z,14.70
2022-12-07T19:12:25.749Z,18.90
2022-12-07T19:14:55.838Z,13.13
2022-12-07T19:17:25.275Z,15.32
2022-12-07T19:19:54.666Z,14.27
2022-12-07T19:22:24.906Z,15.52
2022-12-07T19:24:56.553Z,18.85
2022-12-07T19:27:29.173Z,14.35
2022-12-07T19:29:59.112Z,22.33
2022-12-07T19:32:30.432Z,21.10
2022-12-07T19:35:01.335Z,23.45
2022-12-07T19:37:31.242Z,17.13
2022-12-07T19:40:01.959Z,22.67
2022-12-07T19:42:35.364Z,18.65
2022-12-07T19:45:05.998Z,14.10
2022-12-07T19:47:38.938Z,13.13
2022-12-07T19:50:09.811Z,17.30
2022-12-07T19:52:39.390Z,14.85
2022-12-07T19:55:10.714Z,24.88
2022-12-07T19:57:40.001Z,16.92
2022-12-07T20:00:10.028Z,20.17
2022-12-07T20:02:40.494Z,16.92
2022-12-07T20:05:12.085Z,16.10
2022-12-07T20:07:42.895Z,16.10
2022-12-07T20:10:26.160Z,17.45
2022-12-07T20:13:09.680Z,18.48
2022-12-07T20:15:39.713Z,32.90
2022-12-07T20:18:12.225Z,29.67
2022-12-07T20:20:55.831Z,26.15
2022-12-07T20:23:25.770Z,46.33
2022-12-07T20:25:57.176Z,29.45
2022-12-07T20:28:30.058Z,18.77
2022-12-07T20:30:59.830Z,18.58
2022-12-07T20:33:30.313Z,20.08
2022-12-07T20:36:02.724Z,23.15
2022-12-07T20:38:33.240Z,17.05
2022-12-07T20:41:05.697Z,23.58
2022-12-07T20:43:34.430Z,24.63
2022-12-07T20:46:03.768Z,23.55
2022-12-07T20:48:32.857Z,19.02
2022-12-07T20:51:08.214Z,17.27
2022-12-07T20:53:40.321Z,22.20
2022-12-07T20:56:20.473Z,21.27
2022-12-07T20:58:53.541Z,25.17
2022-12-07T21:01:23.229Z,19.15
2022-12-07T21:03:58.480Z,25.60
2022-12-07T21:06:27.888Z,21.52
2022-12-07T21:09:00.839Z,17.48
2022-12-07T21:11:35.189Z,25.23
2022-12-07T21:14:04.786Z,25.25
2022-12-07T21:16:34.368Z,21.05
2022-12-07T21:19:04.524Z,26.08
2022-12-07T21:21:36.813Z,23.65
2022-12-07T21:24:08.237Z,21.42
2022-12-07T21:26:40.595Z,24.42
2022-12-07T21:29:25.836Z,22.95
2022-12-07T21:32:09.601Z,22.85
2022-12-07T21:34:38.881Z,25.02
2022-12-07T21:37:07.961Z,20.73
2022-12-07T21:39:37.352Z,25.50
2022-12-07T21:42:08.947Z,20.90
2022-12-07T21:44:38.321Z,20.25
2022-12-07T21:47:10.470Z,28.25
2022-12-07T21:49:40.298Z,22.02
2022-12-07T21:52:09.772Z,21.17
2022-12-07T21:54:40.817Z,24.23
2022-12-07T21:57:18.615Z,28.33
2022-12-07T21:59:53.852Z,39.08
2022-12-07T22:02:27.006Z,28.65
2022-12-07T22:04:58.896Z,28.90
2022-12-07T22:07:31.869Z,28.58
2022-12-07T22:10:05.764Z,28.00
2022-12-07T22:12:44.301Z,25.85
2022-12-07T22:15:19.659Z,27.23
2022-12-07T22:17:53.937Z,34.58
2022-12-07T22:20:26.356Z,31.30
2022-12-07T22:22:59.840Z,29.38
2022-12-07T22:25:35.556Z,33.45
2022-12-07T22:28:13.709Z,28.35
2022-12-07T22:30:47.087Z,27.40
2022-12-07T22:33:23.604Z,25.48
2022-12-07T22:35:59.594Z,24.08
2022-12-07T22:38:31.246Z,24.58
2022-12-07T22:43:41.787Z,25.00
2022-12-07T22:46:13.885Z,20.50
2022-12-07T22:48:44.028Z,23.30
2022-12-07T22:51:22.108Z,31.92
2022-12-07T22:53:57.777Z,22.90
2022-12-07T22:56:29.039Z,34.95
2022-12-07T22:59:08.697Z,21.42
2022-12-07T23:01:38.392Z,25.27
2022-12-07T23:04:11.073Z,25.75
2022-12-07T23:06:50.012Z,21.52
2022-12-07T23:09:24.806Z,26.70
2022-12-07T23:12:17.606Z,27.90
2022-12-07T23:15:03.850Z,28.92
2022-12-07T23:17:38.393Z,26.42
2022-12-07T23:20:18.294Z,19.10
2022-12-07T23:22:49.981Z,22.75
2022-12-07T23:25:24.223Z,19.55
2022-12-07T23:27:58.818Z,22.90
2022-12-07T23:30:37.042Z,25.52
2022-12-07T23:33:11.868Z,28.02
2022-12-07T23:35:41.594Z,21.85
2022-12-07T23:38:18.122Z,27.50
2022-12-07T23:40:55.541Z,24.77
2022-12-07T23:43:28.228Z,25.58
2022-12-07T23:46:00.094Z,23.58
2022-12-07T23:51:04.740Z,24.08
2022-12-07T23:53:35.267Z,23.48
2022-12-07T23:56:07.301Z,27.70
2022-12-07T23:58:38.233Z,20.17
